createdAt,value
2023-04-12T00:01:28.925Z,3.77
2023-04-12T00:03:34.133Z,3.78
2023-04-12T00:05:37.543Z,3.78
2023-04-12T00:07:39.255Z,3.77
2023-04-12T00:09:40.781Z,3.78
2023-04-12T00:11:42.313Z,3.76
2023-04-12T00:13:43.861Z,3.77
2023-04-12T00:15:45.973Z,3.78
2023-04-12T00:17:47.663Z,3.78
2023-04-12T00:19:50.090Z,3.78
2023-04-12T00:21:51.562Z,3.78
2023-04-12T00:23:53.128Z,3.78
2023-04-12T00:25:54.637Z,3.79
2023-04-12T00:27:56.379Z,3.78
2023-04-12T00:29:58.072Z,3.79
2023-04-12T00:32:01.608Z,3.80
2023-04-12T00:34:03.081Z,3.82
2023-04-12T00:36:05.068Z,3.82
2023-04-12T00:38:10.576Z,3.81
2023-04-12T00:40:12.943Z,3.81
2023-04-12T00:42:14.799Z,3.81
2023-04-12T00:44:18.015Z,3.81
2023-04-12T00:46:19.928Z,3.81
2023-04-12T00:48:21.545Z,3.81
2023-04-12T00:50:23.269Z,3.81
2023-04-12T00:52:24.765Z,3.81
2023-04-12T00:54:26.250Z,3.81
2023-04-12T00:56:28.862Z,3.82
2023-04-12T00:58:31.797Z,3.81
2023-04-12T01:00:34.431Z,3.82
2023-04-12T01:02:39.371Z,3.82
2023-04-12T01:04:43.597Z,3.82
2023-04-12T01:07:01.593Z,3.82
2023-04-12T01:09:30.303Z,3.83
2023-04-12T01:12:16.158Z,3.82
2023-04-12T01:14:26.096Z,3.82
2023-04-12T01:16:42.075Z,3.82
2023-04-12T01:18:50.469Z,3.82
2023-04-12T01:20:57.788Z,3.83
2023-04-12T01:23:29.415Z,3.83
2023-04-12T01:25:52.622Z,3.84
2023-04-12T01:27:59.695Z,3.84
2023-04-12T01:30:03.102Z,3.85
2023-04-12T01:32:05.674Z,3.85
2023-04-12T01:34:11.376Z,3.87
2023-04-12T01:36:20.329Z,3.88
2023-04-12T01:38:21.851Z,3.89
2023-04-12T01:40:25.157Z,3.91
2023-04-12T01:42:26.625Z,3.91
2023-04-12T01:44:28.085Z,3.92
2023-04-12T01:46:29.764Z,3.93
2023-04-12T01:48:31.278Z,3.95
2023-04-12T01:50:49.795Z,3.97
2023-04-12T01:53:03.593Z,3.97
2023-04-12T01:55:06.594Z,3.97
2023-04-12T01:57:09.877Z,3.98
2023-04-12T01:59:15.954Z,3.99
2023-04-12T02:01:19.168Z,4.01
2023-04-12T02:03:22.014Z,4.02
2023-04-12T02:05:24.306Z,4.03
2023-04-12T02:07:26.121Z,4.03
2023-04-12T02:09:27.565Z,4.04
2023-04-12T02:11:29.580Z,4.05
2023-04-12T02:13:31.429Z,4.06
2023-04-12T02:15:33.432Z,4.06
2023-04-12T02:17:37.801Z,4.08
2023-04-12T02:19:39.366Z,4.08
2023-04-12T02:21:42.305Z,4.09
2023-04-12T02:23:46.853Z,4.10
2023-04-12T02:25:48.340Z,4.10
2023-04-12T02:27:49.844Z,4.12
2023-04-12T02:29:51.293Z,4.11
2023-04-12T02:31:53.190Z,4.10
2023-04-12T02:33:54.801Z,4.12
2023-04-12T02:35:57.386Z,4.11
2023-04-12T02:37:58.941Z,4.10
2023-04-12T02:40:02.654Z,4.10
2023-04-12T02:42:04.325Z,4.09
2023-04-12T02:44:05.768Z,4.09
2023-04-12T02:46:07.319Z,4.10
2023-04-12T02:48:10.031Z,4.09
2023-04-12T02:50:11.713Z,4.10
2023-04-12T02:52:13.188Z,4.10
2023-04-12T02:54:14.673Z,4.11
2023-04-12T02:56:19.264Z,4.11
2023-04-12T02:58:20.837Z,4.11
2023-04-12T03:00:22.633Z,4.10
2023-04-12T03:02:24.453Z,4.12
2023-04-12T03:04:30.216Z,4.13
2023-04-12T03:06:32.115Z,4.13
2023-04-12T03:08:33.591Z,4.14
2023-04-12T03:10:35.275Z,4.13
2023-04-12T03:12:36.760Z,4.15
2023-04-12T03:14:38.226Z,4.16
2023-04-12T03:16:40.004Z,4.17
2023-04-12T03:18:41.484Z,4.16
2023-04-12T03:20:46.036Z,4.17
2023-04-12T03:22:48.927Z,4.19
2023-04-12T03:24:51.670Z,4.19
2023-04-12T03:26:53.259Z,4.19
2023-04-12T03:28:58.708Z,4.19
2023-04-12T03:31:00.649Z,4.19
2023-04-12T03:33:02.433Z,4.19
2023-04-12T03:35:04.758Z,4.19
2023-04-12T03:37:06.233Z,4.20
2023-04-12T03:39:07.706Z,4.20
2023-04-12T03:41:09.161Z,4.21
2023-04-12T03:43:10.658Z,4.21
2023-04-12T03:45:12.236Z,4.21
2023-04-12T03:47:13.915Z,4.19
2023-04-12T03:49:16.727Z,4.21
2023-04-12T03:51:18.445Z,4.20
2023-04-12T03:53:20.817Z,4.21
2023-04-12T03:55:22.448Z,4.20
2023-04-12T03:57:23.919Z,4.19
2023-04-12T03:59:25.539Z,4.20
2023-04-12T04:01:27.516Z,4.19
2023-04-12T04:03:29.858Z,4.17
2023-04-12T04:05:32.296Z,4.16
2023-04-12T04:07:33.796Z,4.17
2023-04-12T04:09:35.311Z,4.17
2023-04-12T04:11:37.773Z,4.16
2023-04-12T04:13:39.361Z,4.15
2023-04-12T04:15:40.832Z,4.14
2023-04-12T04:17:43.033Z,4.14
2023-04-12T04:19:44.614Z,4.13
2023-04-12T04:21:46.097Z,4.11
2023-04-12T04:23:48.006Z,4.09
2023-04-12T04:25:50.017Z,4.08
2023-04-12T04:27:52.025Z,4.06
2023-04-12T04:29:53.514Z,4.05
2023-04-12T04:31:55.075Z,4.04
2023-04-12T04:33:56.834Z,4.02
2023-04-12T04:35:58.560Z,4.01
2023-04-12T04:38:01.515Z,3.99
2023-04-12T04:40:08.557Z,3.98
2023-04-12T04:42:11.060Z,3.97
2023-04-12T04:44:13.317Z,3.95
2023-04-12T04:46:14.987Z,3.95
2023-04-12T04:48:16.601Z,3.93
2023-04-12T04:50:18.177Z,3.94
2023-04-12T04:52:19.633Z,3.95
2023-04-12T04:54:21.252Z,3.97
2023-04-12T04:56:23.331Z,4.00
2023-04-12T04:58:25.630Z,4.02
2023-04-12T05:00:27.091Z,4.05
2023-04-12T05:02:28.735Z,4.07
2023-04-12T05:04:30.335Z,4.13
2023-04-12T05:06:31.985Z,4.17
2023-04-12T05:08:33.494Z,4.21
2023-04-12T05:10:35.043Z,4.26
2023-04-12T05:12:37.513Z,4.30
2023-04-12T05:14:47.285Z,4.35
2023-04-12T05:16:52.851Z,4.41
2023-04-12T05:18:54.438Z,4.46
2023-04-12T05:20:55.929Z,4.48
2023-04-12T05:22:57.591Z,4.52
2023-04-12T05:24:59.123Z,4.53
2023-04-12T05:27:00.609Z,4.56
2023-04-12T05:29:02.308Z,4.62
2023-04-12T05:31:04.633Z,4.65
2023-04-12T05:33:06.507Z,4.68
2023-04-12T05:35:08.468Z,4.69
2023-04-12T05:37:10.000Z,4.71
2023-04-12T05:39:11.527Z,4.74
2023-04-12T05:41:13.231Z,4.78
2023-04-12T05:43:14.813Z,4.82
2023-04-12T05:45:16.271Z,4.87
2023-04-12T05:47:17.824Z,4.92
2023-04-12T05:49:19.309Z,4.97
2023-04-12T05:51:30.623Z,5.01
2023-04-12T05:53:39.464Z,5.06
2023-04-12T05:55:40.933Z,5.10
2023-04-12T05:57:45.012Z,5.16
2023-04-12T05:59:46.522Z,5.20
2023-04-12T06:01:48.207Z,5.23
2023-04-12T06:03:49.904Z,5.27
2023-04-12T06:05:52.587Z,5.30
2023-04-12T06:07:54.118Z,5.33
2023-04-12T06:09:55.802Z,5.35
2023-04-12T06:11:57.304Z,5.38
2023-04-12T06:13:58.879Z,5.41
2023-04-12T06:16:00.414Z,5.44
2023-04-12T06:18:02.096Z,5.48
2023-04-12T06:20:10.706Z,5.53
2023-04-12T06:22:12.235Z,5.58
2023-04-12T06:24:13.768Z,5.62
2023-04-12T06:26:17.214Z,5.62
2023-04-12T06:28:20.085Z,5.68
2023-04-12T06:30:21.630Z,5.72
2023-04-12T06:32:23.242Z,5.79
2023-04-12T06:34:24.743Z,5.89
2023-04-12T06:36:26.339Z,5.98
2023-04-12T06:38:27.813Z,6.08
2023-04-12T06:40:29.501Z,6.11
2023-04-12T06:42:30.997Z,6.15
2023-04-12T06:44:33.543Z,6.20
2023-04-12T06:46:35.272Z,6.22
2023-04-12T06:48:36.740Z,6.29
2023-04-12T06:50:39.359Z,6.34
2023-04-12T06:52:40.868Z,6.40
2023-04-12T06:54:42.616Z,6.47
2023-04-12T06:56:44.101Z,6.54
2023-04-12T06:58:45.939Z,6.63
2023-04-12T07:00:47.456Z,6.71
2023-04-12T07:02:49.139Z,6.78
2023-04-12T07:04:54.531Z,6.84
2023-04-12T07:06:56.132Z,6.94
2023-04-12T07:08:57.818Z,7.01
2023-04-12T07:11:03.643Z,7.09
2023-04-12T07:13:10.257Z,7.15
2023-04-12T07:15:11.780Z,7.24
2023-04-12T07:17:13.281Z,7.30
2023-04-12T07:19:14.776Z,7.39
2023-04-12T07:21:17.714Z,7.47
2023-04-12T07:23:19.323Z,7.53
2023-04-12T07:25:20.812Z,7.62
2023-04-12T07:27:22.446Z,7.71
2023-04-12T07:29:23.900Z,7.80
2023-04-12T07:31:25.404Z,7.90
2023-04-12T07:33:27.030Z,7.99
2023-04-12T07:35:28.558Z,8.04
2023-04-12T07:37:30.036Z,8.07
2023-04-12T07:39:31.938Z,8.07
2023-04-12T07:41:33.441Z,8.11
2023-04-12T07:43:34.901Z,8.18
2023-04-12T07:45:37.496Z,8.23
2023-04-12T07:47:39.171Z,8.23
2023-04-12T07:49:40.681Z,8.27
2023-04-12T07:51:42.576Z,8.31
2023-04-12T07:53:48.232Z,8.37
2023-04-12T07:55:51.094Z,8.41
2023-04-12T07:57:52.576Z,8.42
2023-04-12T07:59:54.060Z,8.49
2023-04-12T08:01:55.656Z,8.55
2023-04-12T08:03:57.484Z,8.60
2023-04-12T08:05:59.771Z,8.65
2023-04-12T08:08:01.265Z,8.73
2023-04-12T08:10:02.775Z,8.77
2023-04-12T08:12:04.460Z,8.87
2023-04-12T08:14:06.022Z,8.95
2023-04-12T08:16:09.297Z,9.02
2023-04-12T08:18:11.304Z,9.07
2023-04-12T08:20:12.781Z,9.12
2023-04-12T08:22:14.501Z,9.13
2023-04-12T08:24:16.045Z,9.13
2023-04-12T08:26:17.511Z,9.13
2023-04-12T08:28:19.012Z,9.11
2023-04-12T08:30:26.466Z,9.08
2023-04-12T08:32:28.075Z,9.09
2023-04-12T08:34:29.555Z,9.10
2023-04-12T08:36:31.121Z,9.12
2023-04-12T08:40:43.107Z,9.13
2023-04-12T08:42:44.684Z,9.17
2023-04-12T08:44:46.270Z,9.22
2023-04-12T08:46:48.706Z,9.17
2023-04-12T08:48:54.870Z,9.15
2023-04-12T08:50:57.693Z,9.18
2023-04-12T08:52:59.788Z,9.11
2023-04-12T08:55:05.521Z,9.06
2023-04-12T08:57:09.032Z,9.05
2023-04-12T08:59:11.017Z,9.03
2023-04-12T09:01:14.248Z,9.05
2023-04-12T09:03:16.119Z,9.10
2023-04-12T09:05:17.900Z,9.12
2023-04-12T09:07:23.456Z,9.13
2023-04-12T09:09:47.368Z,9.16
2023-04-12T09:11:48.933Z,9.18
2023-04-12T09:13:50.890Z,9.22
2023-04-12T09:15:52.389Z,9.27
2023-04-12T09:18:06.130Z,9.30
2023-04-12T09:20:16.638Z,9.34
2023-04-12T09:22:18.320Z,9.34
2023-04-12T09:24:19.900Z,9.33
2023-04-12T09:26:31.625Z,9.37
2023-04-12T09:28:33.260Z,9.42
2023-04-12T09:30:42.837Z,9.38
2023-04-12T09:32:44.966Z,9.34
2023-04-12T09:34:57.995Z,9.32
2023-04-12T09:36:59.534Z,9.28
2023-04-12T09:39:05.280Z,9.28
2023-04-12T09:41:26.094Z,9.30
2023-04-12T09:43:38.537Z,9.30
2023-04-12T09:45:40.083Z,9.28
2023-04-12T09:47:41.801Z,9.29
2023-04-12T09:49:44.799Z,9.33
2023-04-12T09:51:52.547Z,9.42
2023-04-12T09:53:59.569Z,9.48
2023-04-12T09:56:05.714Z,9.58
2023-04-12T09:58:07.519Z,9.64
2023-04-12T10:00:17.372Z,9.67
2023-04-12T10:02:23.665Z,9.64
2023-04-12T10:04:26.342Z,9.56
2023-04-12T10:06:28.103Z,9.45
2023-04-12T10:08:30.860Z,9.39
2023-04-12T10:10:32.603Z,9.37
2023-04-12T10:12:37.106Z,9.33
2023-04-12T10:14:39.444Z,9.29
2023-04-12T10:16:42.697Z,9.26
2023-04-12T10:18:45.324Z,9.29
2023-04-12T10:20:47.706Z,9.33
2023-04-12T10:22:51.236Z,9.31
2023-04-12T10:24:52.943Z,9.30
2023-04-12T10:27:02.445Z,9.36
2023-04-12T10:29:24.395Z,9.44
2023-04-12T10:31:30.523Z,9.48
2023-04-12T10:33:32.147Z,9.47
2023-04-12T10:35:51.956Z,9.43
2023-04-12T10:38:03.549Z,9.42
2023-04-12T10:40:05.998Z,9.42
2023-04-12T10:42:27.866Z,9.41
2023-04-12T10:44:29.480Z,9.37
2023-04-12T10:46:40.461Z,9.38
2023-04-12T10:48:53.228Z,9.35
2023-04-12T10:51:29.688Z,9.33
2023-04-12T10:53:31.233Z,9.32
2023-04-12T10:55:33.411Z,9.29
2023-04-12T10:57:43.652Z,9.24
2023-04-12T10:59:56.735Z,9.22
2023-04-12T11:02:08.429Z,9.21
2023-04-12T11:04:17.232Z,9.20
2023-04-12T11:06:27.030Z,9.22
2023-04-12T11:08:30.677Z,9.25
2023-04-12T11:10:32.177Z,9.28
2023-04-12T11:12:34.246Z,9.32
2023-04-12T11:14:42.806Z,9.38
2023-04-12T11:17:06.508Z,9.43
2023-04-12T11:19:08.089Z,9.40
2023-04-12T11:21:10.441Z,9.40
2023-04-12T11:23:12.358Z,9.41
2023-04-12T11:25:20.839Z,9.43
2023-04-12T11:27:24.267Z,9.47
2023-04-12T11:29:26.465Z,9.41
2023-04-12T11:31:28.022Z,9.34
2023-04-12T11:33:37.003Z,9.33
2023-04-12T11:35:38.651Z,9.30
2023-04-12T11:37:40.326Z,9.30
2023-04-12T11:39:43.456Z,9.24
2023-04-12T11:41:46.405Z,9.12
2023-04-12T11:43:48.512Z,9.06
2023-04-12T11:45:56.328Z,9.05
2023-04-12T11:47:58.277Z,8.99
2023-04-12T11:49:59.978Z,8.94
2023-04-12T11:52:04.560Z,8.99
2023-04-12T11:54:06.024Z,9.04
2023-04-12T11:56:10.423Z,9.05
2023-04-12T11:58:11.929Z,9.00
2023-04-12T12:00:14.274Z,9.05
2023-04-12T12:02:23.760Z,9.08
2023-04-12T12:04:26.941Z,9.03
2023-04-12T12:06:29.562Z,9.01
2023-04-12T12:08:31.451Z,8.98
2023-04-12T12:10:46.343Z,8.93
2023-04-12T12:12:57.657Z,8.86
2023-04-12T12:15:00.415Z,8.85
2023-04-12T12:17:03.032Z,8.84
2023-04-12T12:19:05.164Z,8.88
2023-04-12T12:21:09.785Z,8.92
2023-04-12T12:23:11.347Z,8.93
2023-04-12T12:25:12.876Z,8.92
2023-04-12T12:27:18.783Z,8.92
2023-04-12T12:29:20.687Z,9.01
2023-04-12T12:31:27.844Z,9.18
2023-04-12T12:33:46.826Z,9.39
2023-04-12T12:36:01.517Z,9.63
2023-04-12T12:38:08.492Z,9.93
2023-04-12T12:40:15.407Z,10.19
2023-04-12T12:42:16.896Z,10.45
2023-04-12T12:44:18.355Z,10.68
2023-04-12T12:46:20.600Z,10.85
2023-04-12T12:48:22.195Z,10.82
2023-04-12T12:50:25.747Z,10.90
2023-04-12T12:52:27.364Z,10.96
2023-04-12T12:54:40.651Z,10.88
2023-04-12T12:56:43.224Z,10.78
2023-04-12T12:58:44.741Z,10.80
2023-04-12T13:00:46.288Z,10.79
2023-04-12T13:02:48.635Z,10.75
2023-04-12T13:04:50.317Z,10.69
2023-04-12T13:06:52.096Z,10.62
2023-04-12T13:08:55.065Z,10.66
2023-04-12T13:10:56.657Z,10.71
2023-04-12T13:12:58.740Z,10.78
2023-04-12T13:15:20.147Z,10.80
2023-04-12T13:17:23.770Z,10.80
2023-04-12T13:19:25.304Z,10.75
2023-04-12T13:21:27.200Z,10.62
2023-04-12T13:23:28.676Z,10.58
2023-04-12T13:25:30.169Z,10.58
2023-04-12T13:27:31.813Z,10.57
2023-04-12T13:29:33.522Z,10.58
2023-04-12T13:31:35.040Z,10.52
2023-04-12T13:33:36.596Z,10.53
2023-04-12T13:35:38.069Z,10.60
2023-04-12T13:37:39.954Z,10.68
2023-04-12T13:39:41.531Z,10.74
2023-04-12T13:41:43.127Z,10.79
2023-04-12T13:43:44.583Z,10.78
2023-04-12T13:45:46.148Z,10.90
2023-04-12T13:47:47.713Z,11.01
2023-04-12T13:49:49.479Z,11.11
2023-04-12T13:51:51.047Z,11.28
2023-04-12T13:53:52.835Z,11.45
2023-04-12T13:55:54.360Z,11.52
2023-04-12T13:57:55.849Z,11.55
2023-04-12T13:59:57.543Z,11.52
2023-04-12T14:02:00.638Z,11.55
2023-04-12T14:04:02.208Z,11.61
2023-04-12T14:06:03.748Z,11.70
2023-04-12T14:08:05.227Z,11.70
2023-04-12T14:10:07.437Z,11.68
2023-04-12T14:12:08.895Z,11.67
2023-04-12T14:14:10.915Z,11.69
2023-04-12T14:16:12.649Z,11.75
2023-04-12T14:18:14.205Z,11.78
2023-04-12T14:20:17.994Z,11.85
2023-04-12T14:22:20.754Z,11.93
2023-04-12T14:24:22.868Z,11.98
2023-04-12T14:26:24.335Z,11.94
2023-04-12T14:28:30.681Z,11.86
2023-04-12T14:30:32.406Z,11.55
2023-04-12T14:32:34.609Z,11.43
2023-04-12T14:34:38.003Z,11.37
2023-04-12T14:36:39.510Z,11.32
2023-04-12T14:38:42.042Z,11.33
2023-04-12T14:40:43.666Z,11.33
2023-04-12T14:42:45.345Z,11.37
2023-04-12T14:44:46.794Z,11.31
2023-04-12T14:46:48.287Z,11.27
2023-04-12T14:48:49.739Z,11.24
2023-04-12T14:50:51.278Z,11.20
2023-04-12T14:52:52.757Z,11.17
2023-04-12T14:54:54.353Z,11.21
2023-04-12T14:56:56.855Z,11.29
2023-04-12T14:58:58.479Z,11.34
2023-04-12T15:01:01.010Z,11.54
2023-04-12T15:03:03.052Z,11.71
2023-04-12T15:05:07.551Z,11.88
2023-04-12T15:07:09.091Z,11.74
2023-04-12T15:09:11.508Z,11.59
2023-04-12T15:11:13.047Z,11.58
2023-04-12T15:13:14.556Z,11.58
2023-04-12T15:15:16.463Z,11.63
2023-04-12T15:17:17.909Z,11.60
2023-04-12T15:19:22.825Z,11.49
2023-04-12T15:21:24.899Z,11.42
2023-04-12T15:23:26.659Z,11.46
2023-04-12T15:25:28.299Z,11.48
2023-04-12T15:27:31.200Z,11.51
2023-04-12T15:29:32.680Z,11.42
2023-04-12T15:31:34.195Z,11.38
2023-04-12T15:33:37.124Z,11.26
2023-04-12T15:35:38.829Z,11.22
2023-04-12T15:37:40.835Z,11.11
2023-04-12T15:39:42.492Z,11.03
2023-04-12T15:41:44.324Z,10.93
2023-04-12T15:43:49.284Z,10.92
2023-04-12T15:45:53.396Z,10.93
2023-04-12T15:47:55.341Z,10.94
2023-04-12T15:49:56.808Z,10.92
2023-04-12T15:51:58.317Z,10.92
2023-04-12T15:54:00.052Z,10.91
2023-04-12T15:56:04.488Z,10.85
2023-04-12T15:58:06.017Z,10.86
2023-04-12T16:00:12.662Z,10.81
2023-04-12T16:02:14.360Z,10.80
2023-04-12T16:04:18.979Z,10.77
2023-04-12T16:06:20.840Z,10.71
2023-04-12T16:08:22.923Z,10.75
2023-04-12T16:10:24.810Z,10.74
2023-04-12T16:12:26.686Z,10.70
2023-04-12T16:14:28.263Z,10.74
2023-04-12T16:16:30.227Z,10.73
2023-04-12T16:18:31.779Z,10.73
2023-04-12T16:20:33.249Z,10.68
2023-04-12T16:22:34.708Z,10.66
2023-04-12T16:24:37.402Z,10.58
2023-04-12T16:26:39.583Z,10.56
2023-04-12T16:28:43.861Z,10.49
2023-04-12T16:30:45.341Z,10.43
2023-04-12T16:32:47.823Z,10.43
2023-04-12T16:34:51.107Z,10.41
2023-04-12T16:36:52.947Z,10.34
2023-04-12T16:38:55.270Z,10.27
2023-04-12T16:40:56.917Z,10.22
2023-04-12T16:42:58.455Z,10.16
2023-04-12T16:44:59.886Z,10.13
2023-04-12T16:47:01.383Z,10.16
2023-04-12T16:49:04.722Z,10.25
2023-04-12T16:51:06.230Z,10.34
2023-04-12T16:53:08.531Z,10.36
2023-04-12T16:55:13.371Z,10.41
2023-04-12T16:57:15.531Z,10.38
2023-04-12T16:59:17.208Z,10.26
2023-04-12T17:01:19.241Z,10.17
2023-04-12T17:03:21.303Z,10.12
2023-04-12T17:05:23.209Z,10.02
2023-04-12T17:07:24.838Z,10.00
2023-04-12T17:09:26.531Z,9.99
2023-04-12T17:11:29.322Z,9.95
2023-04-12T17:13:31.148Z,9.93
2023-04-12T17:15:32.844Z,9.91
2023-04-12T17:17:34.316Z,9.95
2023-04-12T17:19:35.785Z,9.95
2023-04-12T17:21:41.418Z,9.92
2023-04-12T17:23:43.170Z,9.83
2023-04-12T17:25:45.182Z,9.74
2023-04-12T17:27:47.373Z,9.69
2023-04-12T17:29:50.226Z,9.61
2023-04-12T17:31:54.314Z,9.25
2023-04-12T17:33:56.929Z,8.89
2023-04-12T17:35:58.573Z,8.55
2023-04-12T17:38:00.064Z,8.28
2023-04-12T17:40:01.706Z,8.06
2023-04-12T17:42:03.424Z,7.93
2023-04-12T17:44:05.700Z,7.81
2023-04-12T17:46:07.400Z,7.72
2023-04-12T17:48:11.749Z,7.64
2023-04-12T17:50:14.721Z,7.57
2023-04-12T17:52:17.112Z,7.52
2023-04-12T17:54:18.775Z,7.45
2023-04-12T17:56:20.455Z,7.42
2023-04-12T17:58:21.954Z,7.38
2023-04-12T18:00:24.002Z,7.38
2023-04-12T18:02:26.066Z,7.36
2023-04-12T18:04:29.065Z,7.32
2023-04-12T18:06:31.758Z,7.28
2023-04-12T18:08:33.338Z,7.29
2023-04-12T18:10:35.218Z,7.30
2023-04-12T18:12:38.575Z,7.25
2023-04-12T18:14:42.761Z,7.26
2023-04-12T18:16:44.228Z,7.27
2023-04-12T18:18:45.936Z,7.28
2023-04-12T18:20:47.467Z,7.32
2023-04-12T18:22:48.970Z,7.39
2023-04-12T18:24:50.657Z,7.41
2023-04-12T18:26:52.121Z,7.46
2023-04-12T18:28:53.608Z,7.45
2023-04-12T18:30:57.123Z,7.54
2023-04-12T18:32:59.611Z,7.54
2023-04-12T18:35:02.571Z,7.55
2023-04-12T18:37:05.914Z,7.58
2023-04-12T18:39:08.015Z,7.59
2023-04-12T18:41:12.670Z,7.60
2023-04-12T18:43:14.126Z,7.62
2023-04-12T18:45:15.927Z,7.66
2023-04-12T18:47:17.676Z,7.71
2023-04-12T18:49:19.116Z,7.75
2023-04-12T18:51:22.843Z,7.76
2023-04-12T18:53:24.381Z,7.71
2023-04-12T18:55:25.991Z,7.62
2023-04-12T18:57:27.528Z,7.54
2023-04-12T18:59:30.032Z,7.52
2023-04-12T19:01:31.541Z,7.45
2023-04-12T19:03:33.746Z,7.38
2023-04-12T19:05:35.659Z,7.33
2023-04-12T19:07:37.711Z,7.32
2023-04-12T19:09:39.173Z,7.30
2023-04-12T19:11:40.708Z,7.28
2023-04-12T19:13:42.183Z,7.28
2023-04-12T19:15:43.781Z,7.25
2023-04-12T19:17:45.412Z,7.25
2023-04-12T19:19:47.000Z,7.24
2023-04-12T19:21:48.578Z,7.21
2023-04-12T19:23:50.030Z,7.17
2023-04-12T19:25:53.000Z,7.13
2023-04-12T19:27:54.510Z,7.09
2023-04-12T19:29:56.265Z,7.07
2023-04-12T19:31:58.169Z,7.02
2023-04-12T19:33:59.824Z,6.99
2023-04-12T19:36:01.611Z,6.96
2023-04-12T19:38:03.615Z,6.90
2023-04-12T19:40:06.296Z,6.84
2023-04-12T19:42:07.950Z,6.80
2023-04-12T19:44:09.445Z,6.79
2023-04-12T19:46:11.845Z,6.78
2023-04-12T19:48:13.452Z,6.76
2023-04-12T19:50:16.949Z,6.70
2023-04-12T19:52:21.251Z,6.59
2023-04-12T19:54:23.919Z,6.56
2023-04-12T19:56:25.572Z,6.55
2023-04-12T19:58:27.032Z,6.53
2023-04-12T20:00:30.187Z,6.51
2023-04-12T20:02:31.995Z,6.48
2023-04-12T20:04:33.696Z,6.45
2023-04-12T20:06:35.506Z,6.39
2023-04-12T20:08:37.891Z,6.33
2023-04-12T20:10:39.374Z,6.27
2023-04-12T20:12:41.356Z,6.19
2023-04-12T20:14:42.985Z,6.14
2023-04-12T20:16:45.528Z,6.14
2023-04-12T20:18:47.485Z,6.13
2023-04-12T20:20:49.709Z,6.12
2023-04-12T20:22:52.171Z,6.10
2023-04-12T20:24:54.110Z,6.08
2023-04-12T20:26:57.184Z,6.05
2023-04-12T20:29:00.283Z,6.04
2023-04-12T20:31:01.950Z,6.00
2023-04-12T20:33:04.287Z,5.97
2023-04-12T20:35:06.776Z,5.95
2023-04-12T20:37:08.271Z,5.93
2023-04-12T20:39:09.751Z,5.89
2023-04-12T20:41:11.226Z,5.87
2023-04-12T20:43:12.732Z,5.84
2023-04-12T20:45:16.841Z,5.82
2023-04-12T20:47:19.072Z,5.77
2023-04-12T20:49:20.599Z,5.74
2023-04-12T20:51:22.521Z,5.71
2023-04-12T20:53:24.358Z,5.68
2023-04-12T20:55:32.741Z,5.64
2023-04-12T20:57:34.649Z,5.59
2023-04-12T20:59:36.129Z,5.56
2023-04-12T21:01:37.746Z,5.53
2023-04-12T21:03:40.802Z,5.50
2023-04-12T21:05:42.340Z,5.51
2023-04-12T21:07:46.426Z,5.49
2023-04-12T21:09:48.313Z,5.48
2023-04-12T21:11:50.960Z,5.44
2023-04-12T21:13:52.564Z,5.41
2023-04-12T21:15:54.206Z,5.40
2023-04-12T21:17:55.897Z,5.36
2023-04-12T21:19:58.328Z,5.32
2023-04-12T21:21:59.844Z,5.27
2023-04-12T21:24:04.491Z,5.25
2023-04-12T21:26:06.799Z,5.26
2023-04-12T21:28:08.318Z,5.24
2023-04-12T21:30:13.739Z,5.25
2023-04-12T21:32:15.315Z,5.23
2023-04-12T21:34:18.197Z,5.21
2023-04-12T21:36:19.972Z,5.20
2023-04-12T21:38:24.659Z,5.19
2023-04-12T21:40:26.387Z,5.16
2023-04-12T21:42:29.617Z,5.15
2023-04-12T21:44:31.182Z,5.12
2023-04-12T21:46:32.721Z,5.09
2023-04-12T21:48:35.123Z,5.05
2023-04-12T21:50:38.026Z,5.03
2023-04-12T21:52:41.100Z,5.01
2023-04-12T21:54:42.592Z,4.98
2023-04-12T21:56:44.122Z,4.96
2023-04-12T21:58:45.612Z,4.94
2023-04-12T22:00:47.816Z,4.94
2023-04-12T22:02:49.424Z,4.90
2023-04-12T22:04:51.542Z,4.88
2023-04-12T22:06:53.049Z,4.87
2023-04-12T22:08:55.507Z,4.84
2023-04-12T22:10:57.027Z,4.83
2023-04-12T22:12:58.465Z,4.82
2023-04-12T22:14:59.916Z,4.80
2023-04-12T22:17:01.568Z,4.78
2023-04-12T22:19:03.123Z,4.78
2023-04-12T22:21:04.974Z,4.76
2023-04-12T22:23:06.453Z,4.74
2023-04-12T22:25:11.835Z,4.73
2023-04-12T22:27:14.798Z,4.73
2023-04-12T22:29:17.516Z,4.72
2023-04-12T22:31:22.300Z,4.71
2023-04-12T22:33:24.025Z,4.69
2023-04-12T22:35:25.672Z,4.66
2023-04-12T22:37:28.255Z,4.65
2023-04-12T22:39:31.702Z,4.62
2023-04-12T22:41:33.266Z,4.59
2023-04-12T22:43:42.668Z,4.56
2023-04-12T22:45:47.538Z,4.53
2023-04-12T22:47:48.994Z,4.50
2023-04-12T22:49:50.773Z,4.49
2023-04-12T22:51:52.848Z,4.46
2023-04-12T22:53:54.876Z,4.45
2023-04-12T22:55:57.274Z,4.42
2023-04-12T22:57:58.910Z,4.37
2023-04-12T23:00:00.640Z,4.36
2023-04-12T23:02:02.322Z,4.33
2023-04-12T23:04:03.952Z,4.32
2023-04-12T23:06:05.663Z,4.32
2023-04-12T23:08:07.232Z,4.31
2023-04-12T23:10:10.747Z,4.32
2023-04-12T23:12:12.589Z,4.30
2023-04-12T23:14:17.667Z,4.31
2023-04-12T23:16:19.396Z,4.30
2023-04-12T23:18:20.874Z,4.30
2023-04-12T23:20:22.973Z,4.30
2023-04-12T23:22:48.569Z,4.30
2023-04-12T23:24:56.275Z,4.29
2023-04-12T23:26:58.754Z,4.30
2023-04-12T23:29:03.518Z,4.30
2023-04-12T23:31:07.022Z,4.30
2023-04-12T23:33:09.401Z,4.27
2023-04-12T23:35:12.156Z,4.27
2023-04-12T23:37:15.063Z,4.27
2023-04-12T23:39:18.170Z,4.26
2023-04-12T23:41:19.693Z,4.26
2023-04-12T23:43:22.392Z,4.27
2023-04-12T23:45:24.209Z,4.29
2023-04-12T23:47:25.961Z,4.27
2023-04-12T23:49:27.903Z,4.26
2023-04-12T23:51:29.442Z,4.26
2023-04-12T23:53:31.488Z,4.25
2023-04-12T23:55:32.971Z,4.25
2023-04-12T23:57:34.669Z,4.26
2023-04-12T23:59:36.710Z,4.25
